Airfield :
LOGIN :

Register | Disclaimer

   EN    FR    IT 

 










Legend :    VFR   Marginal VFR   IFR   Intensive IFR   Very Intensive IFR
Visi :
Ceiling :
>= 8 km
>= 3000ft
5 to 8 km
1000 to 3000 ft
1500m to 5 km
500 to 1000 ft
800 to 1500m
200 to 500 ft
< 800m
< 200 ft
Symbols :   Thunderstorms  Fog  Heavy snow  Heavy precipitations  Wind > 20 kt
SIGMETs :     Misc.  Thunderstorms  Icing  Turbulence  Mountain Waves  Volcanic Ashes






- Airport Elevation : 375 ft
- IATA code : MST


EHBK - Maastricht Aachen

CURRENT METAR :
  • 062125Z AUTO 27003KT 230V330 9999 BKN044/// 18/12 Q1023

EXPIRED METARs :
  • 062055Z AUTO 25004KT 220V290 9999 NSC 19/11 Q1023 NOSIG
  • 062025Z AUTO 26003KT 230V300 9999 NSC 18/11 Q1023 NOSIG
  • 061955Z AUTO 26003KT 230V290 9999 FEW045/// 18/11 Q1023 NOSIG
  • 061925Z AUTO 25004KT 180V290 9999 NSC 19/11 Q1023 NOSIG
  • 061855Z AUTO 26003KT 220V310 9999 OVC047/// 20/11 Q1023 NOSIG

TAF TAF EHBK
Valid from the 06 at 18:00 until the 08 at 00:00 UTC


061700Z 0618/0724 27005KT 9999 SCT045
BECMG 0703/0706 30012KT
PROB40
TEMPO 0705/0708 7000 -RA
BECMG 0719/0722 33007KT



MET'MAP, your aeronautical weather chart ! - Copyright ORBIFLY December 2007 - Disclaimer

ORBIFLY MET'MAP TEAM :

Programming & Development : Alexandra Zaïnal
Original concept : Baudouin d'Aumeries
Technical & hardware support : Manuel Goepfert
Assistance : Marc-Olivier Méhu




SOURCES & CREDITS :

   NOAA